ASL84H LYBE-LYTV
Flight info
| Callsign | ASL84H |
|---|---|
| Flight time | 0h 37m |
| Altitude | 30000 |
| Route | VAL DCT MOJ N732 POD |
| Aircraft | A319/M-SDE3FGHIRWY/LB1 |
Departure
| Time | 2026-05-05 15:09 |
|---|---|
| Airport | Belgrade Nikola Tesla Airport (LYBE) |
Arrival
| Time | 2026-05-05 15:47 |
|---|---|
| Airport | Tivat Airport (LYTV) |
| Time | Latitude | Longitude | Altitude | Speed | Heading |
|---|---|---|---|---|---|
| 2026-05-05 14:42 | 44.82091 | 20.29284 | 309 ft | 0 kts | 212° |
| 2026-05-05 15:01 | 44.82110 | 20.29301 | 308 ft | 4 kts | 212° |
| 2026-05-05 15:01 | 44.82129 | 20.29317 | 308 ft | 4 kts | 206° |
| 2026-05-05 15:01 | 44.82148 | 20.29320 | 306 ft | 4 kts | 136° |
| 2026-05-05 15:02 | 44.82164 | 20.29292 | 307 ft | 4 kts | 122° |
| 2026-05-05 15:02 | 44.82167 | 20.29284 | 308 ft | 0 kts | 123° |
| 2026-05-05 15:04 | 44.82165 | 20.29289 | 307 ft | 4 kts | 123° |
| 2026-05-05 15:04 | 44.82130 | 20.29364 | 307 ft | 12 kts | 123° |
| 2026-05-05 15:05 | 44.82130 | 20.29554 | 309 ft | 13 kts | 34° |
| 2026-05-05 15:05 | 44.82206 | 20.29632 | 310 ft | 14 kts | 54° |
| 2026-05-05 15:05 | 44.82173 | 20.29759 | 308 ft | 16 kts | 105° |
| 2026-05-05 15:06 | 44.82170 | 20.29870 | 309 ft | 18 kts | 92° |
| 2026-05-05 15:06 | 44.82169 | 20.30016 | 306 ft | 4 kts | 90° |
| 2026-05-05 15:06 | 44.82169 | 20.30018 | 307 ft | 0 kts | 91° |
| 2026-05-05 15:07 | 44.82169 | 20.30027 | 307 ft | 3 kts | 91° |
| 2026-05-05 15:07 | 44.82169 | 20.30078 | 305 ft | 8 kts | 89° |
| 2026-05-05 15:07 | 44.82194 | 20.30113 | 306 ft | 8 kts | 52° |
| 2026-05-05 15:07 | 44.82166 | 20.30184 | 304 ft | 0 kts | 121° |
| 2026-05-05 15:08 | 44.82166 | 20.30186 | 304 ft | 1 kts | 121° |
| 2026-05-05 15:08 | 44.82109 | 20.30318 | 304 ft | 43 kts | 122° |
| 2026-05-05 15:09 | 44.81834 | 20.30933 | 309 ft | 104 kts | 122° |
| 2026-05-05 15:09 | 44.81348 | 20.32026 | 368 ft | 151 kts | 122° |
| 2026-05-05 15:09 | 44.80749 | 20.33262 | 919 ft | 155 kts | 137° |
| 2026-05-05 15:09 | 44.79895 | 20.34096 | 1676 ft | 146 kts | 150° |
| 2026-05-05 15:10 | 44.78882 | 20.34244 | 2149 ft | 158 kts | 200° |
| 2026-05-05 15:10 | 44.77939 | 20.33378 | 2616 ft | 169 kts | 214° |
| 2026-05-05 15:10 | 44.76916 | 20.32403 | 2969 ft | 191 kts | 214° |
| 2026-05-05 15:10 | 44.75734 | 20.31276 | 3361 ft | 218 kts | 214° |
| 2026-05-05 15:11 | 44.74416 | 20.30001 | 3879 ft | 243 kts | 214° |
| 2026-05-05 15:11 | 44.72978 | 20.28588 | 4627 ft | 257 kts | 215° |
| 2026-05-05 15:11 | 44.71504 | 20.27121 | 5617 ft | 262 kts | 215° |
| 2026-05-05 15:11 | 44.70007 | 20.25611 | 6602 ft | 266 kts | 216° |
| 2026-05-05 15:12 | 44.68496 | 20.24075 | 7564 ft | 270 kts | 216° |
| 2026-05-05 15:12 | 44.66961 | 20.22513 | 8507 ft | 274 kts | 216° |
| 2026-05-05 15:12 | 44.65405 | 20.20926 | 9422 ft | 278 kts | 216° |
| 2026-05-05 15:12 | 44.63831 | 20.19321 | 10317 ft | 282 kts | 216° |
| 2026-05-05 15:13 | 44.62232 | 20.17694 | 11180 ft | 285 kts | 216° |
| 2026-05-05 15:13 | 44.60613 | 20.16043 | 12028 ft | 289 kts | 216° |
| 2026-05-05 15:13 | 44.58976 | 20.14373 | 12856 ft | 293 kts | 216° |
| 2026-05-05 15:13 | 44.57319 | 20.12682 | 13654 ft | 296 kts | 216° |
| 2026-05-05 15:14 | 44.55480 | 20.11208 | 14013 ft | 317 kts | 199° |
| 2026-05-05 15:14 | 44.53279 | 20.10393 | 14331 ft | 335 kts | 193° |
| 2026-05-05 15:14 | 44.50994 | 20.09622 | 14962 ft | 341 kts | 193° |
| 2026-05-05 15:14 | 44.48668 | 20.08846 | 15656 ft | 345 kts | 193° |
| 2026-05-05 15:15 | 44.46322 | 20.08061 | 16345 ft | 348 kts | 193° |
| 2026-05-05 15:15 | 44.43954 | 20.07264 | 17017 ft | 352 kts | 193° |
| 2026-05-05 15:15 | 44.41559 | 20.06455 | 17675 ft | 356 kts | 193° |
| 2026-05-05 15:15 | 44.39172 | 20.05645 | 18315 ft | 359 kts | 193° |
| 2026-05-05 15:16 | 44.36702 | 20.04805 | 18951 ft | 363 kts | 193° |
| 2026-05-05 15:16 | 44.34234 | 20.03962 | 19571 ft | 367 kts | 194° |
| 2026-05-05 15:16 | 44.31748 | 20.03113 | 20196 ft | 370 kts | 194° |
| 2026-05-05 15:16 | 44.29232 | 20.02256 | 20807 ft | 373 kts | 194° |
| 2026-05-05 15:17 | 44.26736 | 20.01405 | 21384 ft | 376 kts | 194° |
| 2026-05-05 15:17 | 44.24181 | 20.00537 | 21943 ft | 380 kts | 193° |
| 2026-05-05 15:17 | 44.21601 | 19.99662 | 22483 ft | 383 kts | 193° |
| 2026-05-05 15:17 | 44.18998 | 19.98782 | 23010 ft | 387 kts | 193° |
| 2026-05-05 15:18 | 44.16375 | 19.97895 | 23521 ft | 390 kts | 193° |
| 2026-05-05 15:18 | 44.13727 | 19.96997 | 24013 ft | 393 kts | 193° |
| 2026-05-05 15:18 | 44.11049 | 19.96093 | 24463 ft | 398 kts | 193° |
| 2026-05-05 15:18 | 44.08349 | 19.95184 | 24923 ft | 401 kts | 193° |
| 2026-05-05 15:19 | 44.05630 | 19.94274 | 25413 ft | 403 kts | 193° |
| 2026-05-05 15:19 | 44.02896 | 19.93361 | 25895 ft | 405 kts | 193° |
| 2026-05-05 15:19 | 44.00148 | 19.92440 | 26360 ft | 408 kts | 193° |
| 2026-05-05 15:19 | 43.97387 | 19.91511 | 26799 ft | 410 kts | 193° |
| 2026-05-05 15:20 | 43.94599 | 19.90567 | 27202 ft | 414 kts | 194° |
| 2026-05-05 15:20 | 43.91792 | 19.89618 | 27646 ft | 416 kts | 193° |
| 2026-05-05 15:20 | 43.88974 | 19.88670 | 28058 ft | 419 kts | 193° |
| 2026-05-05 15:20 | 43.86128 | 19.87720 | 28457 ft | 422 kts | 193° |
| 2026-05-05 15:21 | 43.83270 | 19.86766 | 28852 ft | 424 kts | 193° |
| 2026-05-05 15:21 | 43.80390 | 19.85802 | 29226 ft | 427 kts | 193° |
| 2026-05-05 15:21 | 43.77497 | 19.84837 | 29592 ft | 430 kts | 193° |
| 2026-05-05 15:21 | 43.74582 | 19.83869 | 29916 ft | 432 kts | 193° |
| 2026-05-05 15:22 | 43.71663 | 19.82903 | 29996 ft | 427 kts | 193° |
| 2026-05-05 15:22 | 43.68825 | 19.81965 | 30006 ft | 413 kts | 193° |
| 2026-05-05 15:22 | 43.66048 | 19.81046 | 30007 ft | 408 kts | 193° |
| 2026-05-05 15:23 | 43.60544 | 19.79216 | 30008 ft | 406 kts | 193° |
| 2026-05-05 15:23 | 43.57654 | 19.78257 | 29998 ft | 407 kts | 193° |
| 2026-05-05 15:24 | 43.52316 | 19.76500 | 30009 ft | 405 kts | 193° |
| 2026-05-05 15:24 | 43.46837 | 19.74684 | 30004 ft | 405 kts | 193° |
| 2026-05-05 15:25 | 43.43426 | 19.73550 | 30006 ft | 405 kts | 193° |
| 2026-05-05 15:25 | 43.42451 | 19.73238 | 30018 ft | 405 kts | 193° |
| 2026-05-05 15:26 | 43.36961 | 19.71462 | 30017 ft | 405 kts | 193° |
| 2026-05-05 15:26 | 43.31348 | 19.69605 | 30008 ft | 426 kts | 193° |
| 2026-05-05 15:26 | 43.28475 | 19.68649 | 29814 ft | 422 kts | 193° |
| 2026-05-05 15:27 | 43.25643 | 19.67715 | 29391 ft | 417 kts | 193° |
| 2026-05-05 15:27 | 43.22838 | 19.66793 | 28965 ft | 412 kts | 193° |
| 2026-05-05 15:27 | 43.20069 | 19.65885 | 28540 ft | 407 kts | 193° |
| 2026-05-05 15:28 | 43.19127 | 19.65575 | 28385 ft | 405 kts | 193° |
| 2026-05-05 15:28 | 43.16396 | 19.64682 | 27954 ft | 401 kts | 193° |
| 2026-05-05 15:28 | 43.13691 | 19.63805 | 27528 ft | 397 kts | 193° |
| 2026-05-05 15:28 | 43.11015 | 19.62936 | 27103 ft | 393 kts | 193° |
| 2026-05-05 15:29 | 43.08367 | 19.62071 | 26676 ft | 390 kts | 193° |
| 2026-05-05 15:29 | 43.05736 | 19.61211 | 26252 ft | 386 kts | 193° |
| 2026-05-05 15:29 | 43.03131 | 19.60364 | 25826 ft | 384 kts | 193° |
| 2026-05-05 15:29 | 43.00538 | 19.59526 | 25401 ft | 382 kts | 193° |
| 2026-05-05 15:30 | 42.97956 | 19.58692 | 24974 ft | 379 kts | 193° |
| 2026-05-05 15:30 | 42.95400 | 19.57859 | 24550 ft | 377 kts | 194° |
| 2026-05-05 15:30 | 42.92967 | 19.56698 | 24128 ft | 374 kts | 203° |
| 2026-05-05 15:30 | 42.90552 | 19.55290 | 23698 ft | 371 kts | 203° |
| 2026-05-05 15:31 | 42.88216 | 19.53932 | 23269 ft | 369 kts | 203° |
| 2026-05-05 15:31 | 42.85863 | 19.52565 | 22852 ft | 366 kts | 203° |
| 2026-05-05 15:31 | 42.83532 | 19.51215 | 22426 ft | 363 kts | 203° |
| 2026-05-05 15:31 | 42.81217 | 19.49879 | 22000 ft | 359 kts | 203° |
| 2026-05-05 15:32 | 42.78929 | 19.48555 | 21575 ft | 356 kts | 203° |
| 2026-05-05 15:32 | 42.76652 | 19.47239 | 21144 ft | 354 kts | 203° |
| 2026-05-05 15:32 | 42.74392 | 19.45937 | 20724 ft | 351 kts | 203° |
| 2026-05-05 15:32 | 42.72152 | 19.44647 | 20299 ft | 348 kts | 203° |
| 2026-05-05 15:33 | 42.69927 | 19.43366 | 19876 ft | 346 kts | 203° |
| 2026-05-05 15:33 | 42.67719 | 19.42099 | 19446 ft | 344 kts | 203° |
| 2026-05-05 15:33 | 42.65525 | 19.40841 | 19016 ft | 341 kts | 203° |
| 2026-05-05 15:33 | 42.63337 | 19.39585 | 18493 ft | 342 kts | 203° |
| 2026-05-05 15:34 | 42.61145 | 19.38325 | 17967 ft | 342 kts | 203° |
| 2026-05-05 15:34 | 42.58954 | 19.37069 | 17441 ft | 342 kts | 203° |
| 2026-05-05 15:34 | 42.56766 | 19.35816 | 16913 ft | 341 kts | 203° |
| 2026-05-05 15:34 | 42.54582 | 19.34567 | 16390 ft | 340 kts | 203° |
| 2026-05-05 15:35 | 42.52405 | 19.33323 | 15862 ft | 339 kts | 202° |
| 2026-05-05 15:35 | 42.50232 | 19.32084 | 15338 ft | 338 kts | 203° |
| 2026-05-05 15:35 | 42.48070 | 19.30848 | 14811 ft | 337 kts | 203° |
| 2026-05-05 15:35 | 42.45912 | 19.29615 | 14284 ft | 335 kts | 203° |
| 2026-05-05 15:36 | 42.43766 | 19.28391 | 13759 ft | 334 kts | 202° |
| 2026-05-05 15:36 | 42.41629 | 19.27174 | 13236 ft | 333 kts | 202° |
| 2026-05-05 15:36 | 42.39515 | 19.25927 | 12704 ft | 331 kts | 207° |
| 2026-05-05 15:36 | 42.37623 | 19.24175 | 12179 ft | 329 kts | 222° |
| 2026-05-05 15:37 | 42.35976 | 19.22040 | 11653 ft | 327 kts | 224° |
| 2026-05-05 15:37 | 42.34343 | 19.19907 | 11127 ft | 326 kts | 224° |
| 2026-05-05 15:37 | 42.32718 | 19.17790 | 10601 ft | 324 kts | 224° |
| 2026-05-05 15:37 | 42.31097 | 19.15685 | 10074 ft | 322 kts | 224° |
| 2026-05-05 15:38 | 42.29481 | 19.13593 | 9546 ft | 320 kts | 224° |
| 2026-05-05 15:38 | 42.27875 | 19.11517 | 9020 ft | 319 kts | 224° |
| 2026-05-05 15:38 | 42.26281 | 19.09453 | 8515 ft | 316 kts | 224° |
| 2026-05-05 15:38 | 42.24716 | 19.07386 | 8067 ft | 312 kts | 228° |
| 2026-05-05 15:39 | 42.23536 | 19.04958 | 7613 ft | 309 kts | 242° |
| 2026-05-05 15:39 | 42.22524 | 19.02421 | 7151 ft | 305 kts | 242° |
| 2026-05-05 15:39 | 42.21541 | 18.99950 | 6699 ft | 293 kts | 242° |
| 2026-05-05 15:39 | 42.20592 | 18.97572 | 6251 ft | 283 kts | 242° |
| 2026-05-05 15:40 | 42.19673 | 18.95264 | 5807 ft | 275 kts | 242° |
| 2026-05-05 15:40 | 42.18782 | 18.93021 | 5349 ft | 268 kts | 242° |
| 2026-05-05 15:40 | 42.17911 | 18.90828 | 4895 ft | 262 kts | 242° |
| 2026-05-05 15:40 | 42.17372 | 18.88534 | 4445 ft | 256 kts | 269° |
| 2026-05-05 15:41 | 42.17818 | 18.86280 | 4002 ft | 249 kts | 304° |
| 2026-05-05 15:41 | 42.19056 | 18.84812 | 3897 ft | 229 kts | 335° |
| 2026-05-05 15:41 | 42.20451 | 18.84065 | 3899 ft | 203 kts | 339° |
| 2026-05-05 15:41 | 42.21667 | 18.83435 | 3893 ft | 173 kts | 339° |
| 2026-05-05 15:42 | 42.22738 | 18.82879 | 3672 ft | 159 kts | 339° |
| 2026-05-05 15:42 | 42.23738 | 18.82361 | 3455 ft | 149 kts | 339° |
| 2026-05-05 15:42 | 42.24682 | 18.81869 | 3252 ft | 143 kts | 339° |
| 2026-05-05 15:42 | 42.25611 | 18.81387 | 3056 ft | 142 kts | 339° |
| 2026-05-05 15:43 | 42.26532 | 18.80908 | 2856 ft | 142 kts | 339° |
| 2026-05-05 15:43 | 42.27453 | 18.80431 | 2667 ft | 141 kts | 339° |
| 2026-05-05 15:43 | 42.28356 | 18.79964 | 2470 ft | 141 kts | 339° |
| 2026-05-05 15:43 | 42.29306 | 18.79477 | 2302 ft | 148 kts | 340° |
| 2026-05-05 15:44 | 42.30239 | 18.79000 | 2092 ft | 140 kts | 339° |
| 2026-05-05 15:44 | 42.31155 | 18.78529 | 1858 ft | 142 kts | 339° |
| 2026-05-05 15:44 | 42.32087 | 18.78051 | 1650 ft | 147 kts | 339° |
| 2026-05-05 15:44 | 42.33050 | 18.77559 | 1464 ft | 146 kts | 339° |
| 2026-05-05 15:45 | 42.33988 | 18.77080 | 1317 ft | 142 kts | 339° |
| 2026-05-05 15:45 | 42.34894 | 18.76617 | 1119 ft | 139 kts | 340° |
| 2026-05-05 15:45 | 42.35827 | 18.76147 | 916 ft | 143 kts | 340° |
| 2026-05-05 15:45 | 42.36760 | 18.75684 | 694 ft | 143 kts | 340° |
| 2026-05-05 15:46 | 42.37693 | 18.75215 | 470 ft | 143 kts | 340° |
| 2026-05-05 15:46 | 42.38599 | 18.74620 | 311 ft | 144 kts | 318° |
| 2026-05-05 15:46 | 42.39314 | 18.73694 | 124 ft | 141 kts | 319° |
| 2026-05-05 15:46 | 42.40035 | 18.72836 | 6 ft | 129 kts | 318° |
| 2026-05-05 15:47 | 42.40582 | 18.72194 | 3 ft | 65 kts | 319° |
| 2026-05-05 15:47 | 42.40760 | 18.71983 | 4 ft | 45 kts | 319° |
| 2026-05-05 15:47 | 42.40986 | 18.71836 | 5 ft | 19 kts | 44° |
| 2026-05-05 15:47 | 42.40999 | 18.71852 | 5 ft | 0 kts | 44° |
| 2026-05-05 15:49 | 42.40999 | 18.71853 | 5 ft | 1 kts | 44° |
| 2026-05-05 15:49 | 42.41033 | 18.71872 | 5 ft | 10 kts | 351° |
| 2026-05-05 15:50 | 42.41083 | 18.71801 | 5 ft | 8 kts | 9° |
| 2026-05-05 15:50 | 42.41092 | 18.71835 | 4 ft | 4 kts | 81° |
| 2026-05-05 15:50 | 42.41071 | 18.71847 | 5 ft | 2 kts | 168° |
| 2026-05-05 15:50 | 42.41070 | 18.71847 | 5 ft | 0 kts | 167° |